createdAt,value
2023-01-13T00:02:00.102Z,10.68
2023-01-13T00:07:21.940Z,10.64
2023-01-13T00:12:44.000Z,10.64
2023-01-13T00:18:05.860Z,10.63
2023-01-13T00:23:28.977Z,10.74
2023-01-13T00:28:50.983Z,10.64
2023-01-13T00:34:12.832Z,10.63
2023-01-13T00:39:34.639Z,10.57
2023-01-13T00:44:56.504Z,10.54
2023-01-13T00:50:18.501Z,10.46
2023-01-13T00:55:40.542Z,10.42
2023-01-13T01:01:07.485Z,10.38
2023-01-13T01:06:30.751Z,10.41
2023-01-13T01:11:52.591Z,10.42
2023-01-13T01:17:14.429Z,10.46
2023-01-13T01:22:36.243Z,10.52
2023-01-13T01:27:58.054Z,10.53
2023-01-13T01:33:19.883Z,10.59
2023-01-13T01:38:41.897Z,10.58
2023-01-13T01:44:41.270Z,10.67
2023-01-13T01:50:04.259Z,10.73
2023-01-13T01:55:33.492Z,10.69
2023-01-13T02:00:55.402Z,10.70
2023-01-13T02:06:17.559Z,10.74
2023-01-13T02:11:57.991Z,10.82
2023-01-13T02:17:38.662Z,10.88
2023-01-13T02:23:54.716Z,10.82
2023-01-13T02:30:10.868Z,10.86
2023-01-13T02:35:35.753Z,10.85
2023-01-13T02:41:23.471Z,10.80
2023-01-13T02:46:54.221Z,10.81
2023-01-13T02:52:23.585Z,10.83
2023-01-13T02:57:47.897Z,10.83
2023-01-13T03:03:09.661Z,10.87
2023-01-13T03:08:47.671Z,10.77
2023-01-13T03:14:30.218Z,10.79
2023-01-13T03:20:01.672Z,10.80
2023-01-13T03:25:29.818Z,10.87
2023-01-13T03:30:58.789Z,10.82
2023-01-13T03:36:25.684Z,10.79
2023-01-13T03:42:16.872Z,10.82
2023-01-13T03:47:53.076Z,10.82
2023-01-13T03:53:17.485Z,10.79
2023-01-13T03:58:44.115Z,10.82
2023-01-13T04:04:15.009Z,10.84
2023-01-13T04:09:42.646Z,10.80
2023-01-13T04:15:04.826Z,10.74
2023-01-13T04:20:26.635Z,10.67
2023-01-13T04:25:49.435Z,10.70
2023-01-13T04:31:11.260Z,10.64
2023-01-13T04:36:33.093Z,10.72
2023-01-13T04:42:03.391Z,10.64
2023-01-13T04:47:25.184Z,10.71
2023-01-13T04:52:48.011Z,10.70
2023-01-13T04:58:11.023Z,10.64
2023-01-13T05:03:32.722Z,10.68
2023-01-13T05:08:54.476Z,10.72
2023-01-13T05:14:34.693Z,10.74
2023-01-13T05:19:56.389Z,10.73
2023-01-13T05:25:25.282Z,10.79
2023-01-13T05:30:49.235Z,10.81
2023-01-13T05:36:11.127Z,10.72
2023-01-13T05:41:51.361Z,10.70
2023-01-13T05:47:13.121Z,10.68
2023-01-13T05:52:34.857Z,10.71
2023-01-13T05:57:56.591Z,10.71
2023-01-13T06:03:22.134Z,10.65
2023-01-13T06:08:43.887Z,10.65
2023-01-13T06:14:05.620Z,10.72
2023-01-13T06:19:27.442Z,10.65
2023-01-13T06:24:50.301Z,10.69
2023-01-13T06:30:12.184Z,10.69
2023-01-13T06:35:37.089Z,10.70
2023-01-13T06:40:58.816Z,10.79
2023-01-13T06:46:20.635Z,10.78
2023-01-13T06:51:42.407Z,10.74
2023-01-13T06:57:04.128Z,10.64
2023-01-13T07:02:27.673Z,10.61
2023-01-13T07:07:49.470Z,10.59
2023-01-13T07:13:29.678Z,10.69
2023-01-13T07:18:51.495Z,10.72
2023-01-13T07:24:13.183Z,10.65
2023-01-13T07:29:34.910Z,10.61
2023-01-13T07:34:56.696Z,10.71
2023-01-13T07:40:18.550Z,10.79
2023-01-13T07:45:40.330Z,10.70
2023-01-13T07:51:04.095Z,10.69
2023-01-13T07:56:25.874Z,10.67
2023-01-13T08:01:47.700Z,10.74
2023-01-13T08:07:09.471Z,10.82
2023-01-13T08:12:53.049Z,10.92
2023-01-13T08:18:22.166Z,10.97
2023-01-13T08:23:45.141Z,10.97
2023-01-13T08:29:06.896Z,10.99
2023-01-13T08:34:28.600Z,11.02
2023-01-13T08:39:50.347Z,11.02
2023-01-13T08:45:13.485Z,10.94
2023-01-13T08:50:35.355Z,10.91
2023-01-13T08:55:57.156Z,10.87
2023-01-13T09:01:22.732Z,10.88
2023-01-13T09:06:44.824Z,10.80
2023-01-13T09:12:25.871Z,10.75
2023-01-13T09:17:47.917Z,10.47
2023-01-13T09:23:10.880Z,10.27
2023-01-13T09:28:33.478Z,10.00
2023-01-13T09:34:13.831Z,9.84
2023-01-13T09:39:36.460Z,9.99
2023-01-13T09:45:05.174Z,10.08
2023-01-13T09:50:38.928Z,10.04
2023-01-13T09:56:00.836Z,10.08
2023-01-13T10:01:46.201Z,10.23
2023-01-13T10:07:14.479Z,10.21
2023-01-13T10:12:55.050Z,10.22
2023-01-13T10:18:36.461Z,10.21
2023-01-13T10:24:07.850Z,10.17
2023-01-13T10:29:31.775Z,10.13
2023-01-13T10:35:00.264Z,10.01
2023-01-13T10:40:22.069Z,10.13
2023-01-13T10:45:55.743Z,10.07
2023-01-13T10:51:39.375Z,10.00
2023-01-13T10:57:20.001Z,10.01
2023-01-13T11:02:41.841Z,10.08
2023-01-13T11:08:04.568Z,9.83
2023-01-13T11:13:35.725Z,9.85
2023-01-13T11:19:02.782Z,9.86
2023-01-13T11:24:50.763Z,9.74
2023-01-13T11:30:26.861Z,9.78
2023-01-13T11:36:02.538Z,9.76
2023-01-13T11:41:42.663Z,9.85
2023-01-13T11:47:04.475Z,9.71
2023-01-13T11:52:42.390Z,9.63
2023-01-13T11:58:20.694Z,9.76
2023-01-13T12:04:14.851Z,9.74
2023-01-13T12:10:00.455Z,9.63
2023-01-13T12:15:22.445Z,9.62
2023-01-13T12:21:03.843Z,9.59
2023-01-13T12:26:34.392Z,9.61
2023-01-13T12:31:57.207Z,9.80
2023-01-13T12:37:37.132Z,9.67
2023-01-13T12:43:33.309Z,9.82
2023-01-13T12:48:56.748Z,9.94
2023-01-13T12:54:30.630Z,10.13
2023-01-13T13:00:04.245Z,10.14
2023-01-13T13:05:26.007Z,9.98
2023-01-13T13:11:41.303Z,10.00
2023-01-13T13:17:04.626Z,9.97
2023-01-13T13:22:26.257Z,9.93
2023-01-13T13:28:03.186Z,9.96
2023-01-13T13:33:49.351Z,9.98
2023-01-13T13:39:40.197Z,10.00
2023-01-13T13:45:30.429Z,10.18
2023-01-13T13:51:01.420Z,10.16
2023-01-13T13:56:26.595Z,10.19
2023-01-13T14:02:00.726Z,10.12
2023-01-13T14:07:22.699Z,9.97
2023-01-13T14:12:44.527Z,9.86
2023-01-13T14:18:17.399Z,9.77
2023-01-13T14:23:39.248Z,9.50
2023-01-13T14:29:03.134Z,9.25
2023-01-13T14:34:31.469Z,9.04
2023-01-13T14:39:55.355Z,8.95
2023-01-13T14:45:24.623Z,8.83
2023-01-13T14:50:46.834Z,8.78
2023-01-13T14:56:43.044Z,8.97
2023-01-13T15:02:44.450Z,8.77
2023-01-13T15:08:35.660Z,8.81
2023-01-13T15:14:01.402Z,8.95
2023-01-13T15:19:23.165Z,8.98
2023-01-13T15:24:44.948Z,8.86
2023-01-13T15:30:33.325Z,9.00
2023-01-13T15:35:56.126Z,8.77
2023-01-13T15:41:37.934Z,8.80
2023-01-13T15:47:02.587Z,8.76
2023-01-13T15:52:26.463Z,8.75
2023-01-13T15:57:50.358Z,8.69
2023-01-13T16:03:16.208Z,8.62
2023-01-13T16:08:37.983Z,8.50
2023-01-13T16:13:59.726Z,8.39
2023-01-13T16:19:21.595Z,8.39
2023-01-13T16:24:43.899Z,8.35
2023-01-13T16:30:06.270Z,8.30
2023-01-13T16:35:29.048Z,8.11
2023-01-13T16:40:52.263Z,8.08
2023-01-13T16:46:28.843Z,7.99
2023-01-13T16:51:50.614Z,8.05
2023-01-13T16:57:13.339Z,8.02
2023-01-13T17:02:35.189Z,8.18
2023-01-13T17:07:57.496Z,8.16
2023-01-13T17:13:19.582Z,8.28
2023-01-13T17:18:41.333Z,8.29
2023-01-13T17:24:05.673Z,8.50
2023-01-13T17:29:27.758Z,8.59
2023-01-13T17:34:50.254Z,8.71
2023-01-13T17:40:12.482Z,8.73
2023-01-13T17:45:34.467Z,8.67
2023-01-13T17:50:56.935Z,8.54
2023-01-13T17:56:18.863Z,8.67
2023-01-13T18:01:41.066Z,8.54
2023-01-13T18:07:03.003Z,8.57
2023-01-13T18:12:24.776Z,8.64
2023-01-13T18:17:47.350Z,8.59
2023-01-13T18:23:38.864Z,8.64
2023-01-13T18:29:00.921Z,8.57
2023-01-13T18:34:22.708Z,8.53
2023-01-13T18:39:44.469Z,8.41
2023-01-13T18:45:06.730Z,8.34
2023-01-13T18:50:29.392Z,8.40
2023-01-13T18:55:51.110Z,8.57
2023-01-13T19:01:13.199Z,8.42
2023-01-13T19:06:35.113Z,8.55
2023-01-13T19:11:57.519Z,8.49
2023-01-13T19:17:19.512Z,8.51
2023-01-13T19:22:41.290Z,8.51
2023-01-13T19:28:03.178Z,8.34
2023-01-13T19:33:24.967Z,8.30
2023-01-13T19:38:46.682Z,8.27
2023-01-13T19:44:30.211Z,8.21
2023-01-13T19:49:52.076Z,8.27
2023-01-13T19:55:13.855Z,8.17
2023-01-13T20:00:35.654Z,8.07
2023-01-13T20:06:06.335Z,7.91
2023-01-13T20:11:31.736Z,7.98
2023-01-13T20:16:53.523Z,8.07
2023-01-13T20:22:15.311Z,8.03
2023-01-13T20:27:40.280Z,7.88
2023-01-13T20:33:02.142Z,7.88
2023-01-13T20:38:23.895Z,7.98
2023-01-13T20:43:45.728Z,7.98
2023-01-13T20:49:10.352Z,8.00
2023-01-13T20:54:32.097Z,8.00
2023-01-13T20:59:53.830Z,8.01
2023-01-13T21:05:15.698Z,7.92
2023-01-13T21:10:37.517Z,7.98
2023-01-13T21:15:59.402Z,8.04
2023-01-13T21:21:21.201Z,8.06
2023-01-13T21:26:43.314Z,8.01
2023-01-13T21:32:05.233Z,7.93
2023-01-13T21:37:27.111Z,7.73
2023-01-13T21:43:07.375Z,7.81
2023-01-13T21:48:29.797Z,7.86
2023-01-13T21:53:51.730Z,7.83
2023-01-13T21:59:13.556Z,7.97
2023-01-13T22:04:35.319Z,7.99
2023-01-13T22:09:57.064Z,7.76
2023-01-13T22:15:19.096Z,7.52
2023-01-13T22:20:42.019Z,7.41
2023-01-13T22:26:05.356Z,7.30
2023-01-13T22:31:28.016Z,7.34
2023-01-13T22:36:49.776Z,7.17
2023-01-13T22:42:11.644Z,6.89
2023-01-13T22:47:33.640Z,6.80
2023-01-13T22:52:55.379Z,6.78
2023-01-13T22:58:17.081Z,6.85
2023-01-13T23:03:39.067Z,6.87
2023-01-13T23:09:01.548Z,6.77
2023-01-13T23:14:23.307Z,6.73
2023-01-13T23:19:45.194Z,6.81
2023-01-13T23:25:07.897Z,6.87
2023-01-13T23:30:29.692Z,6.88
2023-01-13T23:35:59.764Z,6.92
2023-01-13T23:41:24.227Z,6.96
2023-01-13T23:46:46.020Z,7.06
2023-01-13T23:52:07.767Z,7.08
2023-01-13T23:57:29.514Z,7.01
